sensor_id;sensor_type;location;lat;lon;timestamp;temperature;humidity
4487;DHT22;2256;48.740;9.106;2024-01-16T00:01:42;-1.30;99.90
4487;DHT22;2256;48.740;9.106;2024-01-16T00:04:09;-1.20;99.90
4487;DHT22;2256;48.740;9.106;2024-01-16T00:06:38;-1.20;99.90
4487;DHT22;2256;48.740;9.106;2024-01-16T00:09:05;-1.10;99.90
4487;DHT22;2256;48.740;9.106;2024-01-16T00:11:32;-1.10;99.90
4487;DHT22;2256;48.740;9.106;2024-01-16T00:14:00;-1.10;99.90
4487;DHT22;2256;48.740;9.106;2024-01-16T00:16:27;-1.20;99.90
4487;DHT22;2256;48.740;9.106;2024-01-16T00:18:54;-1.40;99.90
4487;DHT22;2256;48.740;9.106;2024-01-16T00:21:20;-1.40;99.90
4487;DHT22;2256;48.740;9.106;2024-01-16T00:23:47;-1.60;99.90
4487;DHT22;2256;48.740;9.106;2024-01-16T00:26:20;-1.60;99.90
4487;DHT22;2256;48.740;9.106;2024-01-16T00:28:47;-1.60;99.90
4487;DHT22;2256;48.740;9.106;2024-01-16T00:31:15;-1.60;99.90
4487;DHT22;2256;48.740;9.106;2024-01-16T00:33:42;-1.60;99.90
4487;DHT22;2256;48.740;9.106;2024-01-16T00:36:09;-1.60;99.90
4487;DHT22;2256;48.740;9.106;2024-01-16T00:38:35;-1.50;99.90
4487;DHT22;2256;48.740;9.106;2024-01-16T00:41:02;-1.60;99.90
4487;DHT22;2256;48.740;9.106;2024-01-16T00:43:29;-1.60;99.90
4487;DHT22;2256;48.740;9.106;2024-01-16T00:45:56;-1.50;99.90
4487;DHT22;2256;48.740;9.106;2024-01-16T00:48:24;-1.50;99.90
4487;DHT22;2256;48.740;9.106;2024-01-16T00:50:51;-1.40;99.90
4487;DHT22;2256;48.740;9.106;2024-01-16T00:53:18;-1.40;99.90
4487;DHT22;2256;48.740;9.106;2024-01-16T00:55:45;-1.40;99.90
4487;DHT22;2256;48.740;9.106;2024-01-16T00:58:12;-1.40;99.90
4487;DHT22;2256;48.740;9.106;2024-01-16T01:00:39;-1.30;99.90
4487;DHT22;2256;48.740;9.106;2024-01-16T01:03:05;-1.40;99.90
4487;DHT22;2256;48.740;9.106;2024-01-16T01:05:33;-1.40;99.90
4487;DHT22;2256;48.740;9.106;2024-01-16T01:08:00;-1.50;99.90
4487;DHT22;2256;48.740;9.106;2024-01-16T01:10:27;-1.40;99.90
4487;DHT22;2256;48.740;9.106;2024-01-16T01:12:54;-1.40;99.90
4487;DHT22;2256;48.740;9.106;2024-01-16T01:15:21;-1.30;99.90
4487;DHT22;2256;48.740;9.106;2024-01-16T01:17:48;-1.30;99.90
4487;DHT22;2256;48.740;9.106;2024-01-16T01:20:17;-1.30;99.90
4487;DHT22;2256;48.740;9.106;2024-01-16T01:22:45;-1.20;99.90
4487;DHT22;2256;48.740;9.106;2024-01-16T01:25:12;-1.20;99.90
4487;DHT22;2256;48.740;9.106;2024-01-16T01:27:40;-1.20;99.90
4487;DHT22;2256;48.740;9.106;2024-01-16T01:30:08;-1.20;99.90
4487;DHT22;2256;48.740;9.106;2024-01-16T01:32:36;-1.30;99.90
4487;DHT22;2256;48.740;9.106;2024-01-16T01:35:03;-1.20;99.90
4487;DHT22;2256;48.740;9.106;2024-01-16T01:37:30;-1.30;99.90
4487;DHT22;2256;48.740;9.106;2024-01-16T01:39:58;-1.20;99.90
4487;DHT22;2256;48.740;9.106;2024-01-16T01:42:25;-1.30;99.90
4487;DHT22;2256;48.740;9.106;2024-01-16T01:44:52;-1.30;99.90
4487;DHT22;2256;48.740;9.106;2024-01-16T01:47:19;-1.30;99.90
4487;DHT22;2256;48.740;9.106;2024-01-16T01:49:46;-1.30;99.90
4487;DHT22;2256;48.740;9.106;2024-01-16T01:52:13;-1.30;99.90
4487;DHT22;2256;48.740;9.106;2024-01-16T01:54:40;-1.30;99.90
4487;DHT22;2256;48.740;9.106;2024-01-16T01:57:09;-1.30;99.90
4487;DHT22;2256;48.740;9.106;2024-01-16T01:59:35;-1.30;99.90
4487;DHT22;2256;48.740;9.106;2024-01-16T02:02:03;-1.30;99.90
4487;DHT22;2256;48.740;9.106;2024-01-16T02:04:31;-1.50;99.90
4487;DHT22;2256;48.740;9.106;2024-01-16T02:06:58;-1.40;99.90
4487;DHT22;2256;48.740;9.106;2024-01-16T02:09:25;-1.50;99.90
4487;DHT22;2256;48.740;9.106;2024-01-16T02:11:52;-1.60;99.90
4487;DHT22;2256;48.740;9.106;2024-01-16T02:14:20;-1.70;99.90
4487;DHT22;2256;48.740;9.106;2024-01-16T02:16:47;-1.80;99.90
4487;DHT22;2256;48.740;9.106;2024-01-16T02:19:15;-1.80;99.90
4487;DHT22;2256;48.740;9.106;2024-01-16T02:21:45;-1.80;99.90
4487;DHT22;2256;48.740;9.106;2024-01-16T02:24:15;-1.80;99.90
4487;DHT22;2256;48.740;9.106;2024-01-16T02:26:42;-1.80;99.90
4487;DHT22;2256;48.740;9.106;2024-01-16T02:29:09;-1.70;99.90
4487;DHT22;2256;48.740;9.106;2024-01-16T02:31:36;-1.70;99.90
4487;DHT22;2256;48.740;9.106;2024-01-16T02:34:03;-1.70;99.90
4487;DHT22;2256;48.740;9.106;2024-01-16T02:36:30;-1.70;99.90
4487;DHT22;2256;48.740;9.106;2024-01-16T02:38:57;-1.80;99.90
4487;DHT22;2256;48.740;9.106;2024-01-16T02:41:25;-1.80;99.90
4487;DHT22;2256;48.740;9.106;2024-01-16T02:43:52;-2.00;99.90
4487;DHT22;2256;48.740;9.106;2024-01-16T02:46:19;-1.90;99.90
4487;DHT22;2256;48.740;9.106;2024-01-16T02:48:46;-2.00;99.90
4487;DHT22;2256;48.740;9.106;2024-01-16T02:51:13;-2.20;99.90
4487;DHT22;2256;48.740;9.106;2024-01-16T02:53:41;-2.20;99.90
4487;DHT22;2256;48.740;9.106;2024-01-16T02:56:08;-2.30;99.90
4487;DHT22;2256;48.740;9.106;2024-01-16T02:58:36;-2.40;99.90
4487;DHT22;2256;48.740;9.106;2024-01-16T03:01:03;-2.40;99.90
4487;DHT22;2256;48.740;9.106;2024-01-16T03:03:30;-2.50;99.90
4487;DHT22;2256;48.740;9.106;2024-01-16T03:05:57;-2.50;99.90
4487;DHT22;2256;48.740;9.106;2024-01-16T03:08:24;-2.50;99.90
4487;DHT22;2256;48.740;9.106;2024-01-16T03:10:51;-2.60;99.90
4487;DHT22;2256;48.740;9.106;2024-01-16T03:13:18;-2.60;99.90
4487;DHT22;2256;48.740;9.106;2024-01-16T03:15:46;-2.60;99.90
4487;DHT22;2256;48.740;9.106;2024-01-16T03:18:13;-2.60;99.90
4487;DHT22;2256;48.740;9.106;2024-01-16T03:20:40;-2.70;99.90
4487;DHT22;2256;48.740;9.106;2024-01-16T03:23:07;-2.70;99.90
4487;DHT22;2256;48.740;9.106;2024-01-16T03:25:34;-2.70;99.90
4487;DHT22;2256;48.740;9.106;2024-01-16T03:28:04;-2.70;99.90
4487;DHT22;2256;48.740;9.106;2024-01-16T03:30:33;-2.80;99.90
4487;DHT22;2256;48.740;9.106;2024-01-16T03:33:02;-2.80;99.90
4487;DHT22;2256;48.740;9.106;2024-01-16T03:35:29;-2.70;99.90
4487;DHT22;2256;48.740;9.106;2024-01-16T03:37:56;-3.00;99.90
4487;DHT22;2256;48.740;9.106;2024-01-16T03:40:23;-3.00;99.90
4487;DHT22;2256;48.740;9.106;2024-01-16T03:42:50;-3.00;99.90
4487;DHT22;2256;48.740;9.106;2024-01-16T03:45:16;-3.00;99.90
4487;DHT22;2256;48.740;9.106;2024-01-16T03:47:43;-3.00;99.90
4487;DHT22;2256;48.740;9.106;2024-01-16T03:50:12;-3.10;99.90
4487;DHT22;2256;48.740;9.106;2024-01-16T03:52:39;-3.00;99.90
4487;DHT22;2256;48.740;9.106;2024-01-16T03:55:07;-3.10;99.90
4487;DHT22;2256;48.740;9.106;2024-01-16T03:57:34;-3.10;99.90
4487;DHT22;2256;48.740;9.106;2024-01-16T04:00:01;-3.10;99.90
4487;DHT22;2256;48.740;9.106;2024-01-16T04:02:28;-3.20;99.90
4487;DHT22;2256;48.740;9.106;2024-01-16T04:04:55;-3.20;99.90
4487;DHT22;2256;48.740;9.106;2024-01-16T04:07:24;-3.20;99.90
4487;DHT22;2256;48.740;9.106;2024-01-16T04:09:51;-3.30;99.90
4487;DHT22;2256;48.740;9.106;2024-01-16T04:12:18;-3.40;99.90
4487;DHT22;2256;48.740;9.106;2024-01-16T04:14:45;-3.40;99.90
4487;DHT22;2256;48.740;9.106;2024-01-16T04:17:12;-3.50;99.90
4487;DHT22;2256;48.740;9.106;2024-01-16T04:19:39;-3.60;99.90
4487;DHT22;2256;48.740;9.106;2024-01-16T04:22:06;-3.60;99.90
4487;DHT22;2256;48.740;9.106;2024-01-16T04:24:35;-3.60;99.90
4487;DHT22;2256;48.740;9.106;2024-01-16T04:27:02;-3.60;99.90
4487;DHT22;2256;48.740;9.106;2024-01-16T04:29:29;-3.70;99.90
4487;DHT22;2256;48.740;9.106;2024-01-16T04:31:56;-3.70;99.90
4487;DHT22;2256;48.740;9.106;2024-01-16T04:34:23;-3.60;99.90
4487;DHT22;2256;48.740;9.106;2024-01-16T04:36:50;-3.60;99.90
4487;DHT22;2256;48.740;9.106;2024-01-16T04:39:16;-3.50;99.90
4487;DHT22;2256;48.740;9.106;2024-01-16T04:41:45;-3.50;99.90
4487;DHT22;2256;48.740;9.106;2024-01-16T04:44:11;-3.50;99.90
4487;DHT22;2256;48.740;9.106;2024-01-16T04:46:38;-3.40;99.90
4487;DHT22;2256;48.740;9.106;2024-01-16T04:49:05;-3.40;99.90
4487;DHT22;2256;48.740;9.106;2024-01-16T04:51:32;-3.40;99.90
4487;DHT22;2256;48.740;9.106;2024-01-16T04:53:58;-3.40;99.90
4487;DHT22;2256;48.740;9.106;2024-01-16T04:56:25;-3.50;99.90
4487;DHT22;2256;48.740;9.106;2024-01-16T04:58:53;-3.60;99.90
4487;DHT22;2256;48.740;9.106;2024-01-16T05:01:21;-3.60;99.90
4487;DHT22;2256;48.740;9.106;2024-01-16T05:03:47;-3.50;99.90
4487;DHT22;2256;48.740;9.106;2024-01-16T05:06:15;-3.40;99.90
4487;DHT22;2256;48.740;9.106;2024-01-16T05:08:42;-3.50;99.90
4487;DHT22;2256;48.740;9.106;2024-01-16T05:11:09;-3.50;99.90
4487;DHT22;2256;48.740;9.106;2024-01-16T05:13:35;-3.60;99.90
4487;DHT22;2256;48.740;9.106;2024-01-16T05:16:05;-3.60;99.90
4487;DHT22;2256;48.740;9.106;2024-01-16T05:18:32;-3.70;99.90
4487;DHT22;2256;48.740;9.106;2024-01-16T05:20:59;-3.60;99.90
4487;DHT22;2256;48.740;9.106;2024-01-16T05:23:27;-3.70;99.90
4487;DHT22;2256;48.740;9.106;2024-01-16T05:25:54;-3.90;99.90
4487;DHT22;2256;48.740;9.106;2024-01-16T05:28:22;-4.00;99.90
4487;DHT22;2256;48.740;9.106;2024-01-16T05:30:49;-3.80;99.90
4487;DHT22;2256;48.740;9.106;2024-01-16T05:33:17;-3.70;99.90
4487;DHT22;2256;48.740;9.106;2024-01-16T05:35:43;-3.70;99.90
4487;DHT22;2256;48.740;9.106;2024-01-16T05:38:10;-3.60;99.90
4487;DHT22;2256;48.740;9.106;2024-01-16T05:40:38;-3.60;99.90
4487;DHT22;2256;48.740;9.106;2024-01-16T05:43:05;-3.70;99.90
4487;DHT22;2256;48.740;9.106;2024-01-16T05:45:32;-3.70;99.90
4487;DHT22;2256;48.740;9.106;2024-01-16T05:47:59;-3.80;99.90
4487;DHT22;2256;48.740;9.106;2024-01-16T05:50:27;-3.80;99.90
4487;DHT22;2256;48.740;9.106;2024-01-16T05:52:54;-3.60;99.90
4487;DHT22;2256;48.740;9.106;2024-01-16T05:55:20;-3.70;99.90
4487;DHT22;2256;48.740;9.106;2024-01-16T05:57:48;-3.60;99.90
4487;DHT22;2256;48.740;9.106;2024-01-16T06:00:15;-3.60;99.90
4487;DHT22;2256;48.740;9.106;2024-01-16T06:02:43;-3.60;99.90
4487;DHT22;2256;48.740;9.106;2024-01-16T06:05:10;-3.40;99.90
4487;DHT22;2256;48.740;9.106;2024-01-16T06:07:38;-3.40;99.90
4487;DHT22;2256;48.740;9.106;2024-01-16T06:10:06;-3.40;99.90
4487;DHT22;2256;48.740;9.106;2024-01-16T06:12:34;-3.40;99.90
4487;DHT22;2256;48.740;9.106;2024-01-16T06:15:01;-3.30;99.90
4487;DHT22;2256;48.740;9.106;2024-01-16T06:17:27;-3.20;99.90
4487;DHT22;2256;48.740;9.106;2024-01-16T06:19:55;-3.30;99.90
4487;DHT22;2256;48.740;9.106;2024-01-16T06:22:21;-3.30;99.90
4487;DHT22;2256;48.740;9.106;2024-01-16T06:24:50;-3.30;99.90
4487;DHT22;2256;48.740;9.106;2024-01-16T06:27:16;-3.30;99.90
4487;DHT22;2256;48.740;9.106;2024-01-16T06:29:45;-3.20;99.90
4487;DHT22;2256;48.740;9.106;2024-01-16T06:32:12;-3.30;99.90
4487;DHT22;2256;48.740;9.106;2024-01-16T06:34:39;-3.30;99.90
4487;DHT22;2256;48.740;9.106;2024-01-16T06:37:06;-3.40;99.90
4487;DHT22;2256;48.740;9.106;2024-01-16T06:39:33;-3.40;99.90
4487;DHT22;2256;48.740;9.106;2024-01-16T06:42:02;-3.50;99.90
4487;DHT22;2256;48.740;9.106;2024-01-16T06:44:29;-3.50;99.90
4487;DHT22;2256;48.740;9.106;2024-01-16T06:46:56;-3.40;99.90
4487;DHT22;2256;48.740;9.106;2024-01-16T06:49:23;-3.30;99.90
4487;DHT22;2256;48.740;9.106;2024-01-16T06:51:50;-3.30;99.90
4487;DHT22;2256;48.740;9.106;2024-01-16T06:54:16;-3.40;99.90
4487;DHT22;2256;48.740;9.106;2024-01-16T06:56:45;-3.40;99.90
4487;DHT22;2256;48.740;9.106;2024-01-16T06:59:15;-3.30;99.90
4487;DHT22;2256;48.740;9.106;2024-01-16T07:01:44;-3.20;99.90
4487;DHT22;2256;48.740;9.106;2024-01-16T07:04:12;-3.30;99.90
4487;DHT22;2256;48.740;9.106;2024-01-16T07:06:40;-3.40;99.90
4487;DHT22;2256;48.740;9.106;2024-01-16T07:09:07;-3.50;99.90
4487;DHT22;2256;48.740;9.106;2024-01-16T07:11:36;-3.50;99.90
4487;DHT22;2256;48.740;9.106;2024-01-16T07:14:03;-3.60;99.90
4487;DHT22;2256;48.740;9.106;2024-01-16T07:16:31;-3.50;99.90
4487;DHT22;2256;48.740;9.106;2024-01-16T07:18:58;-3.40;99.90
4487;DHT22;2256;48.740;9.106;2024-01-16T07:21:25;-3.20;99.90
4487;DHT22;2256;48.740;9.106;2024-01-16T07:23:53;-3.50;99.90
4487;DHT22;2256;48.740;9.106;2024-01-16T07:26:20;-3.60;99.90
4487;DHT22;2256;48.740;9.106;2024-01-16T07:28:50;-3.60;99.90
4487;DHT22;2256;48.740;9.106;2024-01-16T07:31:16;-3.50;99.90
4487;DHT22;2256;48.740;9.106;2024-01-16T07:33:44;-3.60;99.90
4487;DHT22;2256;48.740;9.106;2024-01-16T07:36:13;-3.60;99.90
4487;DHT22;2256;48.740;9.106;2024-01-16T07:38:39;-3.50;99.90
4487;DHT22;2256;48.740;9.106;2024-01-16T07:41:07;-3.30;99.90
4487;DHT22;2256;48.740;9.106;2024-01-16T07:43:40;-3.20;99.90
4487;DHT22;2256;48.740;9.106;2024-01-16T07:46:07;-2.90;99.90
4487;DHT22;2256;48.740;9.106;2024-01-16T07:48:34;-3.10;99.90
4487;DHT22;2256;48.740;9.106;2024-01-16T07:51:05;-3.10;99.90
4487;DHT22;2256;48.740;9.106;2024-01-16T07:53:32;-3.00;99.90
4487;DHT22;2256;48.740;9.106;2024-01-16T07:55:59;-2.90;99.90
4487;DHT22;2256;48.740;9.106;2024-01-16T07:58:26;-2.80;99.90
4487;DHT22;2256;48.740;9.106;2024-01-16T08:00:54;-2.80;99.90
4487;DHT22;2256;48.740;9.106;2024-01-16T08:03:20;-2.70;99.90
4487;DHT22;2256;48.740;9.106;2024-01-16T08:05:48;-2.70;99.90
4487;DHT22;2256;48.740;9.106;2024-01-16T08:08:16;-2.70;99.90
4487;DHT22;2256;48.740;9.106;2024-01-16T08:10:43;-2.70;99.90
4487;DHT22;2256;48.740;9.106;2024-01-16T08:13:10;-2.70;99.90
4487;DHT22;2256;48.740;9.106;2024-01-16T08:15:37;-2.60;99.90
4487;DHT22;2256;48.740;9.106;2024-01-16T08:18:05;-2.40;99.90
4487;DHT22;2256;48.740;9.106;2024-01-16T08:20:32;-2.30;99.90
4487;DHT22;2256;48.740;9.106;2024-01-16T08:22:59;-2.10;99.90
4487;DHT22;2256;48.740;9.106;2024-01-16T08:25:27;-2.10;99.90
4487;DHT22;2256;48.740;9.106;2024-01-16T08:27:55;-2.00;99.90
4487;DHT22;2256;48.740;9.106;2024-01-16T08:30:22;-1.90;99.90
4487;DHT22;2256;48.740;9.106;2024-01-16T08:33:00;-1.90;99.90
4487;DHT22;2256;48.740;9.106;2024-01-16T08:35:38;-1.80;99.90
4487;DHT22;2256;48.740;9.106;2024-01-16T08:38:06;-1.60;99.90
4487;DHT22;2256;48.740;9.106;2024-01-16T08:40:49;-1.60;99.90
4487;DHT22;2256;48.740;9.106;2024-01-16T08:43:25;-1.50;99.90
4487;DHT22;2256;48.740;9.106;2024-01-16T08:45:54;-1.40;99.90
4487;DHT22;2256;48.740;9.106;2024-01-16T08:48:21;-1.30;99.90
4487;DHT22;2256;48.740;9.106;2024-01-16T08:50:48;-1.30;99.90
4487;DHT22;2256;48.740;9.106;2024-01-16T08:53:15;-1.30;99.90
4487;DHT22;2256;48.740;9.106;2024-01-16T08:55:43;-1.20;99.90
4487;DHT22;2256;48.740;9.106;2024-01-16T08:58:10;-1.00;99.90
4487;DHT22;2256;48.740;9.106;2024-01-16T09:00:37;-0.90;99.90
4487;DHT22;2256;48.740;9.106;2024-01-16T09:03:04;-0.80;99.90
4487;DHT22;2256;48.740;9.106;2024-01-16T09:05:31;-0.80;99.90
4487;DHT22;2256;48.740;9.106;2024-01-16T09:08:00;-0.70;99.90
4487;DHT22;2256;48.740;9.106;2024-01-16T09:10:28;-0.60;99.90
4487;DHT22;2256;48.740;9.106;2024-01-16T09:12:56;-0.50;99.90
4487;DHT22;2256;48.740;9.106;2024-01-16T09:15:25;-0.50;99.90
4487;DHT22;2256;48.740;9.106;2024-01-16T09:17:51;-0.40;99.90
4487;DHT22;2256;48.740;9.106;2024-01-16T09:20:18;-0.30;99.90
4487;DHT22;2256;48.740;9.106;2024-01-16T09:22:45;-0.30;99.90
4487;DHT22;2256;48.740;9.106;2024-01-16T09:25:12;-0.20;99.90
4487;DHT22;2256;48.740;9.106;2024-01-16T09:27:39;0.10;99.90
4487;DHT22;2256;48.740;9.106;2024-01-16T09:30:08;0.40;99.90
4487;DHT22;2256;48.740;9.106;2024-01-16T09:32:35;0.60;99.90
4487;DHT22;2256;48.740;9.106;2024-01-16T09:35:03;0.70;99.90
4487;DHT22;2256;48.740;9.106;2024-01-16T09:37:32;0.90;99.90
4487;DHT22;2256;48.740;9.106;2024-01-16T09:39:59;1.20;99.90
4487;DHT22;2256;48.740;9.106;2024-01-16T09:42:27;1.30;99.90
4487;DHT22;2256;48.740;9.106;2024-01-16T09:44:55;1.30;99.90
4487;DHT22;2256;48.740;9.106;2024-01-16T09:47:25;1.40;99.90
4487;DHT22;2256;48.740;9.106;2024-01-16T09:49:52;1.40;99.90
4487;DHT22;2256;48.740;9.106;2024-01-16T09:52:20;1.30;99.60
4487;DHT22;2256;48.740;9.106;2024-01-16T09:54:47;1.30;99.50
4487;DHT22;2256;48.740;9.106;2024-01-16T09:57:15;1.40;99.30
4487;DHT22;2256;48.740;9.106;2024-01-16T09:59:44;1.50;99.30
4487;DHT22;2256;48.740;9.106;2024-01-16T10:02:12;1.70;99.40
4487;DHT22;2256;48.740;9.106;2024-01-16T10:04:41;1.90;98.90
4487;DHT22;2256;48.740;9.106;2024-01-16T10:07:09;2.00;98.80
4487;DHT22;2256;48.740;9.106;2024-01-16T10:09:38;2.20;99.10
4487;DHT22;2256;48.740;9.106;2024-01-16T10:12:05;2.40;98.90
4487;DHT22;2256;48.740;9.106;2024-01-16T10:14:33;2.70;98.50
4487;DHT22;2256;48.740;9.106;2024-01-16T10:17:01;2.90;98.00
4487;DHT22;2256;48.740;9.106;2024-01-16T10:19:31;3.10;97.70
4487;DHT22;2256;48.740;9.106;2024-01-16T10:22:03;3.20;97.60
4487;DHT22;2256;48.740;9.106;2024-01-16T10:24:30;3.40;97.70
4487;DHT22;2256;48.740;9.106;2024-01-16T10:26:59;3.60;97.60
4487;DHT22;2256;48.740;9.106;2024-01-16T10:29:28;4.10;97.10
4487;DHT22;2256;48.740;9.106;2024-01-16T10:31:55;4.30;96.80
4487;DHT22;2256;48.740;9.106;2024-01-16T10:34:23;4.30;95.70
4487;DHT22;2256;48.740;9.106;2024-01-16T10:36:51;4.20;96.10
4487;DHT22;2256;48.740;9.106;2024-01-16T10:39:19;4.30;96.50
4487;DHT22;2256;48.740;9.106;2024-01-16T10:41:56;4.30;95.90
4487;DHT22;2256;48.740;9.106;2024-01-16T10:44:24;4.20;95.60
4487;DHT22;2256;48.740;9.106;2024-01-16T10:46:56;4.20;95.40
4487;DHT22;2256;48.740;9.106;2024-01-16T10:49:36;4.10;95.80
4487;DHT22;2256;48.740;9.106;2024-01-16T10:52:06;4.10;95.40
4487;DHT22;2256;48.740;9.106;2024-01-16T10:54:37;3.90;95.30
4487;DHT22;2256;48.740;9.106;2024-01-16T10:57:11;3.70;95.40
4487;DHT22;2256;48.740;9.106;2024-01-16T10:59:42;3.50;95.40
4487;DHT22;2256;48.740;9.106;2024-01-16T11:02:15;3.40;95.70
4487;DHT22;2256;48.740;9.106;2024-01-16T11:04:47;3.30;95.30
4487;DHT22;2256;48.740;9.106;2024-01-16T11:07:15;3.10;95.50
4487;DHT22;2256;48.740;9.106;2024-01-16T11:09:44;3.10;95.60
4487;DHT22;2256;48.740;9.106;2024-01-16T11:12:13;3.10;95.80
4487;DHT22;2256;48.740;9.106;2024-01-16T11:14:44;3.00;95.60
4487;DHT22;2256;48.740;9.106;2024-01-16T11:17:13;3.00;95.40
4487;DHT22;2256;48.740;9.106;2024-01-16T11:19:44;2.70;95.60
4487;DHT22;2256;48.740;9.106;2024-01-16T11:22:11;2.50;95.80
4487;DHT22;2256;48.740;9.106;2024-01-16T11:24:40;2.40;96.10
4487;DHT22;2256;48.740;9.106;2024-01-16T11:27:21;2.30;96.30
4487;DHT22;2256;48.740;9.106;2024-01-16T11:29:49;2.30;96.40
4487;DHT22;2256;48.740;9.106;2024-01-16T11:32:33;2.30;96.20
4487;DHT22;2256;48.740;9.106;2024-01-16T11:35:01;2.40;96.20
4487;DHT22;2256;48.740;9.106;2024-01-16T11:37:29;2.30;96.40
4487;DHT22;2256;48.740;9.106;2024-01-16T11:40:24;2.30;96.60
4487;DHT22;2256;48.740;9.106;2024-01-16T11:42:54;2.30;96.70
4487;DHT22;2256;48.740;9.106;2024-01-16T11:45:50;2.40;96.60
4487;DHT22;2256;48.740;9.106;2024-01-16T11:48:18;2.40;96.60
4487;DHT22;2256;48.740;9.106;2024-01-16T11:50:46;2.50;96.10
4487;DHT22;2256;48.740;9.106;2024-01-16T11:53:41;2.40;95.40
4487;DHT22;2256;48.740;9.106;2024-01-16T11:56:41;2.40;96.10
4487;DHT22;2256;48.740;9.106;2024-01-16T11:59:42;2.40;96.70
4487;DHT22;2256;48.740;9.106;2024-01-16T12:02:20;2.40;95.90
4487;DHT22;2256;48.740;9.106;2024-01-16T12:04:52;2.30;96.00
4487;DHT22;2256;48.740;9.106;2024-01-16T12:07:22;2.20;96.10
4487;DHT22;2256;48.740;9.106;2024-01-16T12:09:49;2.30;96.20
4487;DHT22;2256;48.740;9.106;2024-01-16T12:12:17;2.40;95.90
4487;DHT22;2256;48.740;9.106;2024-01-16T12:14:55;2.30;94.70
4487;DHT22;2256;48.740;9.106;2024-01-16T12:17:24;2.00;94.50
4487;DHT22;2256;48.740;9.106;2024-01-16T12:19:51;1.90;95.30
4487;DHT22;2256;48.740;9.106;2024-01-16T12:22:19;1.70;94.70
4487;DHT22;2256;48.740;9.106;2024-01-16T12:24:48;1.80;94.70
4487;DHT22;2256;48.740;9.106;2024-01-16T12:27:15;1.70;95.00
4487;DHT22;2256;48.740;9.106;2024-01-16T12:29:43;1.60;94.90
4487;DHT22;2256;48.740;9.106;2024-01-16T12:32:13;1.90;95.30
4487;DHT22;2256;48.740;9.106;2024-01-16T12:34:44;2.00;95.20
4487;DHT22;2256;48.740;9.106;2024-01-16T12:37:13;2.30;95.20
4487;DHT22;2256;48.740;9.106;2024-01-16T12:39:40;2.30;94.30
4487;DHT22;2256;48.740;9.106;2024-01-16T12:42:09;2.30;94.20
4487;DHT22;2256;48.740;9.106;2024-01-16T12:44:37;2.40;95.00
4487;DHT22;2256;48.740;9.106;2024-01-16T12:47:04;2.20;94.50
4487;DHT22;2256;48.740;9.106;2024-01-16T12:49:40;2.40;94.50
4487;DHT22;2256;48.740;9.106;2024-01-16T12:52:21;2.10;94.50
4487;DHT22;2256;48.740;9.106;2024-01-16T12:54:58;2.10;95.30
4487;DHT22;2256;48.740;9.106;2024-01-16T12:57:26;2.20;95.40
4487;DHT22;2256;48.740;9.106;2024-01-16T12:59:53;2.20;94.80
4487;DHT22;2256;48.740;9.106;2024-01-16T13:02:22;2.40;94.30
4487;DHT22;2256;48.740;9.106;2024-01-16T13:04:58;2.40;93.90
4487;DHT22;2256;48.740;9.106;2024-01-16T13:07:25;2.40;94.50
4487;DHT22;2256;48.740;9.106;2024-01-16T13:10:06;2.30;94.20
4487;DHT22;2256;48.740;9.106;2024-01-16T13:12:34;2.30;94.20
4487;DHT22;2256;48.740;9.106;2024-01-16T13:15:02;2.30;94.10
4487;DHT22;2256;48.740;9.106;2024-01-16T13:17:32;2.10;94.20
4487;DHT22;2256;48.740;9.106;2024-01-16T13:20:00;2.30;93.90
4487;DHT22;2256;48.740;9.106;2024-01-16T13:22:29;2.20;93.60
4487;DHT22;2256;48.740;9.106;2024-01-16T13:24:56;2.10;94.00
4487;DHT22;2256;48.740;9.106;2024-01-16T13:27:23;2.20;94.00
4487;DHT22;2256;48.740;9.106;2024-01-16T13:29:52;2.10;94.00
4487;DHT22;2256;48.740;9.106;2024-01-16T13:32:19;2.20;94.10
4487;DHT22;2256;48.740;9.106;2024-01-16T13:34:45;2.30;93.80
4487;DHT22;2256;48.740;9.106;2024-01-16T13:37:20;2.40;94.10
4487;DHT22;2256;48.740;9.106;2024-01-16T13:39:47;2.50;93.90
4487;DHT22;2256;48.740;9.106;2024-01-16T13:42:14;2.50;93.60
4487;DHT22;2256;48.740;9.106;2024-01-16T13:44:44;2.40;93.40
4487;DHT22;2256;48.740;9.106;2024-01-16T13:47:11;2.40;93.30
4487;DHT22;2256;48.740;9.106;2024-01-16T13:49:39;2.40;93.70
4487;DHT22;2256;48.740;9.106;2024-01-16T13:52:06;2.30;93.10
4487;DHT22;2256;48.740;9.106;2024-01-16T13:54:37;2.10;93.10
4487;DHT22;2256;48.740;9.106;2024-01-16T13:57:05;1.80;93.10
4487;DHT22;2256;48.740;9.106;2024-01-16T13:59:32;1.90;93.30
4487;DHT22;2256;48.740;9.106;2024-01-16T14:02:01;1.90;93.80
4487;DHT22;2256;48.740;9.106;2024-01-16T14:04:29;1.90;93.90
4487;DHT22;2256;48.740;9.106;2024-01-16T14:06:55;1.90;94.00
4487;DHT22;2256;48.740;9.106;2024-01-16T14:09:23;1.90;94.80
4487;DHT22;2256;48.740;9.106;2024-01-16T14:11:51;2.10;94.00
4487;DHT22;2256;48.740;9.106;2024-01-16T14:14:18;2.20;93.80
4487;DHT22;2256;48.740;9.106;2024-01-16T14:16:45;2.20;93.80
4487;DHT22;2256;48.740;9.106;2024-01-16T14:19:15;2.10;94.00
4487;DHT22;2256;48.740;9.106;2024-01-16T14:21:42;2.10;93.90
4487;DHT22;2256;48.740;9.106;2024-01-16T14:24:08;2.20;93.90
4487;DHT22;2256;48.740;9.106;2024-01-16T14:26:37;2.10;93.50
4487;DHT22;2256;48.740;9.106;2024-01-16T14:29:05;2.10;93.80
4487;DHT22;2256;48.740;9.106;2024-01-16T14:31:32;2.00;94.00
4487;DHT22;2256;48.740;9.106;2024-01-16T14:33:59;2.00;94.20
4487;DHT22;2256;48.740;9.106;2024-01-16T14:36:26;2.10;93.20
4487;DHT22;2256;48.740;9.106;2024-01-16T14:38:53;2.10;93.30
4487;DHT22;2256;48.740;9.106;2024-01-16T14:41:19;2.00;93.80
4487;DHT22;2256;48.740;9.106;2024-01-16T14:43:47;2.00;93.80
4487;DHT22;2256;48.740;9.106;2024-01-16T14:46:15;1.90;94.30
4487;DHT22;2256;48.740;9.106;2024-01-16T14:48:44;1.90;93.90
4487;DHT22;2256;48.740;9.106;2024-01-16T14:51:11;1.70;94.00
4487;DHT22;2256;48.740;9.106;2024-01-16T14:53:38;1.80;93.30
4487;DHT22;2256;48.740;9.106;2024-01-16T14:56:05;1.70;93.90
4487;DHT22;2256;48.740;9.106;2024-01-16T14:58:32;1.70;94.30
4487;DHT22;2256;48.740;9.106;2024-01-16T15:01:01;1.60;94.50
4487;DHT22;2256;48.740;9.106;2024-01-16T15:03:30;1.60;94.50
4487;DHT22;2256;48.740;9.106;2024-01-16T15:05:57;1.50;94.20
4487;DHT22;2256;48.740;9.106;2024-01-16T15:08:24;1.50;94.00
4487;DHT22;2256;48.740;9.106;2024-01-16T15:10:54;1.50;94.40
4487;DHT22;2256;48.740;9.106;2024-01-16T15:13:21;1.50;95.00
4487;DHT22;2256;48.740;9.106;2024-01-16T15:15:49;1.50;95.00
4487;DHT22;2256;48.740;9.106;2024-01-16T15:18:17;1.40;94.50
4487;DHT22;2256;48.740;9.106;2024-01-16T15:20:46;1.30;94.70
4487;DHT22;2256;48.740;9.106;2024-01-16T15:23:12;1.20;95.00
4487;DHT22;2256;48.740;9.106;2024-01-16T15:25:42;1.10;95.20
4487;DHT22;2256;48.740;9.106;2024-01-16T15:28:09;1.10;95.30
4487;DHT22;2256;48.740;9.106;2024-01-16T15:30:36;0.90;95.40
4487;DHT22;2256;48.740;9.106;2024-01-16T15:33:03;0.80;95.50
4487;DHT22;2256;48.740;9.106;2024-01-16T15:35:31;0.60;95.70
4487;DHT22;2256;48.740;9.106;2024-01-16T15:37:59;0.70;96.00
4487;DHT22;2256;48.740;9.106;2024-01-16T15:40:30;0.40;96.10
4487;DHT22;2256;48.740;9.106;2024-01-16T15:43:00;0.20;96.30
4487;DHT22;2256;48.740;9.106;2024-01-16T15:45:27;0.20;96.60
4487;DHT22;2256;48.740;9.106;2024-01-16T15:47:55;0.30;96.70
4487;DHT22;2256;48.740;9.106;2024-01-16T15:50:22;0.00;97.10
4487;DHT22;2256;48.740;9.106;2024-01-16T15:52:50;-0.20;97.40
4487;DHT22;2256;48.740;9.106;2024-01-16T15:55:22;-0.30;97.60
4487;DHT22;2256;48.740;9.106;2024-01-16T15:57:49;-0.40;97.90
4487;DHT22;2256;48.740;9.106;2024-01-16T16:00:17;-0.50;98.20
4487;DHT22;2256;48.740;9.106;2024-01-16T16:02:46;-0.50;98.50
4487;DHT22;2256;48.740;9.106;2024-01-16T16:05:15;-0.60;98.80
4487;DHT22;2256;48.740;9.106;2024-01-16T16:07:44;-0.60;99.10
4487;DHT22;2256;48.740;9.106;2024-01-16T16:10:13;-0.50;99.40
4487;DHT22;2256;48.740;9.106;2024-01-16T16:12:44;-0.80;99.50
4487;DHT22;2256;48.740;9.106;2024-01-16T16:15:12;-0.80;99.60